sensor_id;sensor_type;location;lat;lon;timestamp;temperature;humidity
33943;DHT22;66763;47.856;17.462;2024-03-29T00:02:17;12.80;55.20
33943;DHT22;66763;47.856;17.462;2024-03-29T00:04:42;12.80;55.20
33943;DHT22;66763;47.856;17.462;2024-03-29T00:07:08;12.80;55.20
33943;DHT22;66763;47.856;17.462;2024-03-29T00:09:34;12.80;55.20
33943;DHT22;66763;47.856;17.462;2024-03-29T00:12:00;12.80;55.20
33943;DHT22;66763;47.856;17.462;2024-03-29T00:14:25;12.90;55.20
33943;DHT22;66763;47.856;17.462;2024-03-29T00:16:51;12.90;55.20
33943;DHT22;66763;47.856;17.462;2024-03-29T00:19:17;12.80;55.20
33943;DHT22;66763;47.856;17.462;2024-03-29T00:21:42;12.80;55.20
33943;DHT22;66763;47.856;17.462;2024-03-29T00:24:08;12.80;55.20
33943;DHT22;66763;47.856;17.462;2024-03-29T00:26:33;12.80;55.20
33943;DHT22;66763;47.856;17.462;2024-03-29T00:28:59;12.90;55.20
33943;DHT22;66763;47.856;17.462;2024-03-29T00:31:24;12.80;55.20
33943;DHT22;66763;47.856;17.462;2024-03-29T00:33:50;12.80;55.20
33943;DHT22;66763;47.856;17.462;2024-03-29T00:36:15;12.80;55.20
33943;DHT22;66763;47.856;17.462;2024-03-29T00:38:40;12.80;55.20
33943;DHT22;66763;47.856;17.462;2024-03-29T00:41:06;12.80;55.20
33943;DHT22;66763;47.856;17.462;2024-03-29T00:43:32;12.80;55.20
33943;DHT22;66763;47.856;17.462;2024-03-29T00:45:57;12.80;55.20
33943;DHT22;66763;47.856;17.462;2024-03-29T00:48:23;12.80;55.20
33943;DHT22;66763;47.856;17.462;2024-03-29T00:50:48;12.80;55.20
33943;DHT22;66763;47.856;17.462;2024-03-29T00:53:14;12.80;55.20
33943;DHT22;66763;47.856;17.462;2024-03-29T00:55:39;12.80;55.20
33943;DHT22;66763;47.856;17.462;2024-03-29T00:58:05;12.90;55.30
33943;DHT22;66763;47.856;17.462;2024-03-29T01:00:30;12.80;55.20
33943;DHT22;66763;47.856;17.462;2024-03-29T01:02:55;12.80;55.80
33943;DHT22;66763;47.856;17.462;2024-03-29T01:05:22;12.80;55.20
33943;DHT22;66763;47.856;17.462;2024-03-29T01:07:48;12.80;55.20
33943;DHT22;66763;47.856;17.462;2024-03-29T01:10:13;12.80;55.20
33943;DHT22;66763;47.856;17.462;2024-03-29T01:12:39;12.80;55.20
33943;DHT22;66763;47.856;17.462;2024-03-29T01:15:06;12.80;55.20
33943;DHT22;66763;47.856;17.462;2024-03-29T01:17:32;12.80;55.20
33943;DHT22;66763;47.856;17.462;2024-03-29T01:19:57;12.80;55.20
33943;DHT22;66763;47.856;17.462;2024-03-29T01:22:23;12.80;55.20
33943;DHT22;66763;47.856;17.462;2024-03-29T01:24:48;12.80;55.20
33943;DHT22;66763;47.856;17.462;2024-03-29T01:27:14;12.80;55.20
33943;DHT22;66763;47.856;17.462;2024-03-29T01:29:39;12.80;55.20
33943;DHT22;66763;47.856;17.462;2024-03-29T01:32:05;12.80;55.20
33943;DHT22;66763;47.856;17.462;2024-03-29T01:34:31;12.80;55.20
33943;DHT22;66763;47.856;17.462;2024-03-29T01:36:57;12.80;55.20
33943;DHT22;66763;47.856;17.462;2024-03-29T01:39:22;12.80;55.20
33943;DHT22;66763;47.856;17.462;2024-03-29T01:41:54;12.80;55.20
33943;DHT22;66763;47.856;17.462;2024-03-29T01:44:19;12.80;55.20
33943;DHT22;66763;47.856;17.462;2024-03-29T01:46:45;12.80;55.30
33943;DHT22;66763;47.856;17.462;2024-03-29T01:49:12;12.80;55.20
33943;DHT22;66763;47.856;17.462;2024-03-29T01:51:37;12.80;55.20
33943;DHT22;66763;47.856;17.462;2024-03-29T01:54:06;12.80;55.20
33943;DHT22;66763;47.856;17.462;2024-03-29T01:56:35;12.80;55.20
33943;DHT22;66763;47.856;17.462;2024-03-29T01:59:00;12.80;55.20
33943;DHT22;66763;47.856;17.462;2024-03-29T02:01:29;12.80;55.30
33943;DHT22;66763;47.856;17.462;2024-03-29T02:03:55;12.80;55.30
33943;DHT22;66763;47.856;17.462;2024-03-29T02:06:21;12.80;55.30
33943;DHT22;66763;47.856;17.462;2024-03-29T02:08:48;12.80;55.20
33943;DHT22;66763;47.856;17.462;2024-03-29T02:11:15;12.80;55.30
33943;DHT22;66763;47.856;17.462;2024-03-29T02:13:40;12.80;55.30
33943;DHT22;66763;47.856;17.462;2024-03-29T02:16:06;12.80;55.30
33943;DHT22;66763;47.856;17.462;2024-03-29T02:18:32;12.80;55.20
33943;DHT22;66763;47.856;17.462;2024-03-29T02:20:57;12.80;55.30
33943;DHT22;66763;47.856;17.462;2024-03-29T02:23:29;12.80;55.30
33943;DHT22;66763;47.856;17.462;2024-03-29T02:25:55;12.80;55.30
33943;DHT22;66763;47.856;17.462;2024-03-29T02:28:21;12.80;55.30
33943;DHT22;66763;47.856;17.462;2024-03-29T02:30:47;12.80;55.30
33943;DHT22;66763;47.856;17.462;2024-03-29T02:33:12;12.80;55.30
33943;DHT22;66763;47.856;17.462;2024-03-29T02:35:38;12.80;55.30
33943;DHT22;66763;47.856;17.462;2024-03-29T02:38:03;12.80;55.30
33943;DHT22;66763;47.856;17.462;2024-03-29T02:40:29;12.80;55.30
33943;DHT22;66763;47.856;17.462;2024-03-29T02:42:54;12.80;55.30
33943;DHT22;66763;47.856;17.462;2024-03-29T02:45:20;12.80;55.30
33943;DHT22;66763;47.856;17.462;2024-03-29T02:47:45;12.80;55.30
33943;DHT22;66763;47.856;17.462;2024-03-29T02:50:12;12.80;55.30
33943;DHT22;66763;47.856;17.462;2024-03-29T02:52:38;12.80;55.30
33943;DHT22;66763;47.856;17.462;2024-03-29T02:55:03;12.80;55.30
33943;DHT22;66763;47.856;17.462;2024-03-29T02:57:29;12.80;55.30
33943;DHT22;66763;47.856;17.462;2024-03-29T02:59:54;12.80;55.30
33943;DHT22;66763;47.856;17.462;2024-03-29T03:02:20;12.80;55.30
33943;DHT22;66763;47.856;17.462;2024-03-29T03:04:45;12.80;55.30
33943;DHT22;66763;47.856;17.462;2024-03-29T03:07:11;12.80;55.30
33943;DHT22;66763;47.856;17.462;2024-03-29T03:09:55;12.80;55.30
33943;DHT22;66763;47.856;17.462;2024-03-29T03:12:39;12.80;55.30
33943;DHT22;66763;47.856;17.462;2024-03-29T03:15:05;12.80;55.40
33943;DHT22;66763;47.856;17.462;2024-03-29T03:17:31;12.70;55.30
33943;DHT22;66763;47.856;17.462;2024-03-29T03:19:56;12.80;55.30
33943;DHT22;66763;47.856;17.462;2024-03-29T03:22:22;12.80;55.40
33943;DHT22;66763;47.856;17.462;2024-03-29T03:24:48;12.80;55.40
33943;DHT22;66763;47.856;17.462;2024-03-29T03:27:13;12.80;55.30
33943;DHT22;66763;47.856;17.462;2024-03-29T03:29:39;12.80;55.30
33943;DHT22;66763;47.856;17.462;2024-03-29T03:32:04;12.80;55.30
33943;DHT22;66763;47.856;17.462;2024-03-29T03:34:30;12.80;55.30
33943;DHT22;66763;47.856;17.462;2024-03-29T03:36:56;12.80;55.30
33943;DHT22;66763;47.856;17.462;2024-03-29T03:39:21;12.80;55.30
33943;DHT22;66763;47.856;17.462;2024-03-29T03:41:47;12.80;55.40
33943;DHT22;66763;47.856;17.462;2024-03-29T03:44:13;12.80;55.30
33943;DHT22;66763;47.856;17.462;2024-03-29T03:46:38;12.80;55.30
33943;DHT22;66763;47.856;17.462;2024-03-29T03:49:04;12.80;55.30
33943;DHT22;66763;47.856;17.462;2024-03-29T03:51:29;12.80;55.30
33943;DHT22;66763;47.856;17.462;2024-03-29T03:53:54;12.80;55.30
33943;DHT22;66763;47.856;17.462;2024-03-29T03:56:20;12.80;55.30
33943;DHT22;66763;47.856;17.462;2024-03-29T03:58:45;12.80;55.40
33943;DHT22;66763;47.856;17.462;2024-03-29T04:01:11;12.80;55.30
33943;DHT22;66763;47.856;17.462;2024-03-29T04:03:36;12.80;55.30
33943;DHT22;66763;47.856;17.462;2024-03-29T04:06:05;12.80;55.30
33943;DHT22;66763;47.856;17.462;2024-03-29T04:08:31;12.80;55.30
33943;DHT22;66763;47.856;17.462;2024-03-29T04:10:56;12.80;55.30
33943;DHT22;66763;47.856;17.462;2024-03-29T04:13:22;12.80;55.30
33943;DHT22;66763;47.856;17.462;2024-03-29T04:15:48;12.80;55.30
33943;DHT22;66763;47.856;17.462;2024-03-29T04:18:13;12.80;55.40
33943;DHT22;66763;47.856;17.462;2024-03-29T04:20:39;12.80;55.30
33943;DHT22;66763;47.856;17.462;2024-03-29T04:23:05;12.80;55.30
33943;DHT22;66763;47.856;17.462;2024-03-29T04:25:30;12.80;55.30
33943;DHT22;66763;47.856;17.462;2024-03-29T04:27:56;12.80;55.30
33943;DHT22;66763;47.856;17.462;2024-03-29T04:30:21;12.80;55.30
33943;DHT22;66763;47.856;17.462;2024-03-29T04:32:47;12.80;55.30
33943;DHT22;66763;47.856;17.462;2024-03-29T04:35:12;12.80;55.30
33943;DHT22;66763;47.856;17.462;2024-03-29T04:37:38;12.80;55.30
33943;DHT22;66763;47.856;17.462;2024-03-29T04:40:03;12.80;55.30
33943;DHT22;66763;47.856;17.462;2024-03-29T04:42:29;12.80;55.30
33943;DHT22;66763;47.856;17.462;2024-03-29T04:44:54;12.80;55.30
33943;DHT22;66763;47.856;17.462;2024-03-29T04:47:20;12.80;55.30
33943;DHT22;66763;47.856;17.462;2024-03-29T04:49:46;12.70;55.30
33943;DHT22;66763;47.856;17.462;2024-03-29T04:52:11;12.80;55.30
33943;DHT22;66763;47.856;17.462;2024-03-29T04:54:38;12.70;55.30
33943;DHT22;66763;47.856;17.462;2024-03-29T04:57:03;12.80;55.40
33943;DHT22;66763;47.856;17.462;2024-03-29T04:59:31;12.70;55.30
33943;DHT22;66763;47.856;17.462;2024-03-29T05:01:58;12.80;55.30
33943;DHT22;66763;47.856;17.462;2024-03-29T05:04:23;12.80;55.30
33943;DHT22;66763;47.856;17.462;2024-03-29T05:06:53;12.80;55.30
33943;DHT22;66763;47.856;17.462;2024-03-29T05:09:18;12.80;55.30
33943;DHT22;66763;47.856;17.462;2024-03-29T05:11:44;12.70;55.30
33943;DHT22;66763;47.856;17.462;2024-03-29T05:14:10;12.80;55.30
33943;DHT22;66763;47.856;17.462;2024-03-29T05:16:35;12.70;55.30
33943;DHT22;66763;47.856;17.462;2024-03-29T05:19:01;12.70;55.30
33943;DHT22;66763;47.856;17.462;2024-03-29T05:21:26;12.80;55.30
33943;DHT22;66763;47.856;17.462;2024-03-29T05:23:52;12.70;55.20
33943;DHT22;66763;47.856;17.462;2024-03-29T05:26:18;12.70;55.20
33943;DHT22;66763;47.856;17.462;2024-03-29T05:28:43;12.70;55.20
33943;DHT22;66763;47.856;17.462;2024-03-29T05:31:12;12.70;55.30
33943;DHT22;66763;47.856;17.462;2024-03-29T05:33:39;12.70;55.30
33943;DHT22;66763;47.856;17.462;2024-03-29T05:36:05;12.70;55.30
33943;DHT22;66763;47.856;17.462;2024-03-29T05:38:32;12.70;55.30
33943;DHT22;66763;47.856;17.462;2024-03-29T05:40:57;12.70;55.30
33943;DHT22;66763;47.856;17.462;2024-03-29T05:43:24;12.70;55.30
33943;DHT22;66763;47.856;17.462;2024-03-29T05:45:52;12.70;55.30
33943;DHT22;66763;47.856;17.462;2024-03-29T05:48:17;12.70;55.30
33943;DHT22;66763;47.856;17.462;2024-03-29T05:50:44;12.80;55.30
33943;DHT22;66763;47.856;17.462;2024-03-29T05:53:10;12.70;55.30
33943;DHT22;66763;47.856;17.462;2024-03-29T05:55:35;12.80;55.30
33943;DHT22;66763;47.856;17.462;2024-03-29T05:58:01;12.70;55.20
33943;DHT22;66763;47.856;17.462;2024-03-29T06:00:28;12.70;55.20
33943;DHT22;66763;47.856;17.462;2024-03-29T06:02:54;12.70;55.20
33943;DHT22;66763;47.856;17.462;2024-03-29T06:05:20;12.80;55.30
33943;DHT22;66763;47.856;17.462;2024-03-29T06:07:45;12.70;55.30
33943;DHT22;66763;47.856;17.462;2024-03-29T06:10:11;12.80;55.90
33943;DHT22;66763;47.856;17.462;2024-03-29T06:12:36;12.70;55.30
33943;DHT22;66763;47.856;17.462;2024-03-29T06:15:04;12.70;55.30
33943;DHT22;66763;47.856;17.462;2024-03-29T06:17:48;12.70;55.30
33943;DHT22;66763;47.856;17.462;2024-03-29T06:20:14;12.70;55.30
33943;DHT22;66763;47.856;17.462;2024-03-29T06:22:39;12.70;55.30
33943;DHT22;66763;47.856;17.462;2024-03-29T06:25:05;12.70;55.30
33943;DHT22;66763;47.856;17.462;2024-03-29T06:27:31;12.70;55.30
33943;DHT22;66763;47.856;17.462;2024-03-29T06:29:57;12.70;55.30
33943;DHT22;66763;47.856;17.462;2024-03-29T06:32:23;12.70;55.30
33943;DHT22;66763;47.856;17.462;2024-03-29T06:34:48;12.70;55.30
33943;DHT22;66763;47.856;17.462;2024-03-29T06:37:14;12.70;55.30
33943;DHT22;66763;47.856;17.462;2024-03-29T06:39:39;12.70;55.30
33943;DHT22;66763;47.856;17.462;2024-03-29T06:42:05;12.70;55.30
33943;DHT22;66763;47.856;17.462;2024-03-29T06:44:33;12.70;55.30
33943;DHT22;66763;47.856;17.462;2024-03-29T06:46:59;12.70;55.30
33943;DHT22;66763;47.856;17.462;2024-03-29T06:49:25;12.70;55.30
33943;DHT22;66763;47.856;17.462;2024-03-29T06:51:50;12.70;55.30
33943;DHT22;66763;47.856;17.462;2024-03-29T06:54:16;12.70;55.30
33943;DHT22;66763;47.856;17.462;2024-03-29T06:56:41;12.70;55.30
33943;DHT22;66763;47.856;17.462;2024-03-29T06:59:07;12.70;55.30
33943;DHT22;66763;47.856;17.462;2024-03-29T07:01:33;12.70;55.30
33943;DHT22;66763;47.856;17.462;2024-03-29T07:03:59;12.70;55.30
33943;DHT22;66763;47.856;17.462;2024-03-29T07:06:24;12.70;55.30
33943;DHT22;66763;47.856;17.462;2024-03-29T07:08:50;12.70;55.30
33943;DHT22;66763;47.856;17.462;2024-03-29T07:11:15;12.70;55.30
33943;DHT22;66763;47.856;17.462;2024-03-29T07:13:41;12.70;55.30
33943;DHT22;66763;47.856;17.462;2024-03-29T07:16:06;12.80;55.30
33943;DHT22;66763;47.856;17.462;2024-03-29T07:18:35;12.70;55.30
33943;DHT22;66763;47.856;17.462;2024-03-29T07:21:00;12.70;55.30
33943;DHT22;66763;47.856;17.462;2024-03-29T07:23:26;12.80;55.40
33943;DHT22;66763;47.856;17.462;2024-03-29T07:25:58;12.70;55.30
33943;DHT22;66763;47.856;17.462;2024-03-29T07:28:24;12.70;55.30
33943;DHT22;66763;47.856;17.462;2024-03-29T07:30:50;12.70;55.30
33943;DHT22;66763;47.856;17.462;2024-03-29T07:33:16;12.70;55.30
33943;DHT22;66763;47.856;17.462;2024-03-29T07:35:41;12.70;55.30
33943;DHT22;66763;47.856;17.462;2024-03-29T07:38:07;12.70;55.30
33943;DHT22;66763;47.856;17.462;2024-03-29T07:40:32;12.70;55.30
33943;DHT22;66763;47.856;17.462;2024-03-29T07:42:58;12.80;55.40
33943;DHT22;66763;47.856;17.462;2024-03-29T07:45:25;12.70;55.30
33943;DHT22;66763;47.856;17.462;2024-03-29T07:47:50;12.70;55.30
33943;DHT22;66763;47.856;17.462;2024-03-29T07:50:18;12.70;55.30
33943;DHT22;66763;47.856;17.462;2024-03-29T07:52:46;12.70;55.30
33943;DHT22;66763;47.856;17.462;2024-03-29T07:55:12;12.70;55.30
33943;DHT22;66763;47.856;17.462;2024-03-29T07:57:38;12.80;55.30
33943;DHT22;66763;47.856;17.462;2024-03-29T08:00:04;12.70;55.30
33943;DHT22;66763;47.856;17.462;2024-03-29T08:02:30;12.80;55.30
33943;DHT22;66763;47.856;17.462;2024-03-29T08:04:57;12.70;55.30
33943;DHT22;66763;47.856;17.462;2024-03-29T08:07:22;12.70;55.20
33943;DHT22;66763;47.856;17.462;2024-03-29T08:09:48;12.80;55.30
33943;DHT22;66763;47.856;17.462;2024-03-29T08:12:14;12.80;55.30
33943;DHT22;66763;47.856;17.462;2024-03-29T08:14:40;12.80;55.30
33943;DHT22;66763;47.856;17.462;2024-03-29T08:17:05;12.80;55.30
33943;DHT22;66763;47.856;17.462;2024-03-29T08:19:39;12.80;55.30
33943;DHT22;66763;47.856;17.462;2024-03-29T08:22:05;12.80;55.30
33943;DHT22;66763;47.856;17.462;2024-03-29T08:24:30;12.80;55.30
33943;DHT22;66763;47.856;17.462;2024-03-29T08:26:56;12.80;55.30
33943;DHT22;66763;47.856;17.462;2024-03-29T08:29:24;12.80;55.30
33943;DHT22;66763;47.856;17.462;2024-03-29T08:31:49;12.70;55.20
33943;DHT22;66763;47.856;17.462;2024-03-29T08:34:15;12.80;55.30
33943;DHT22;66763;47.856;17.462;2024-03-29T08:36:41;12.80;55.20
33943;DHT22;66763;47.856;17.462;2024-03-29T08:39:06;12.70;55.20
33943;DHT22;66763;47.856;17.462;2024-03-29T08:41:31;12.80;55.20
33943;DHT22;66763;47.856;17.462;2024-03-29T08:43:57;12.80;55.20
33943;DHT22;66763;47.856;17.462;2024-03-29T08:46:22;12.80;55.20
33943;DHT22;66763;47.856;17.462;2024-03-29T08:48:48;12.80;55.80
33943;DHT22;66763;47.856;17.462;2024-03-29T08:51:14;12.80;55.20
33943;DHT22;66763;47.856;17.462;2024-03-29T08:53:40;12.80;55.20
33943;DHT22;66763;47.856;17.462;2024-03-29T08:56:06;12.80;55.20
33943;DHT22;66763;47.856;17.462;2024-03-29T08:58:31;12.80;55.20
33943;DHT22;66763;47.856;17.462;2024-03-29T09:00:57;12.80;55.20
33943;DHT22;66763;47.856;17.462;2024-03-29T09:03:22;12.80;55.20
33943;DHT22;66763;47.856;17.462;2024-03-29T09:05:48;12.80;55.20
33943;DHT22;66763;47.856;17.462;2024-03-29T09:08:14;12.80;55.20
33943;DHT22;66763;47.856;17.462;2024-03-29T09:10:40;12.80;55.20
33943;DHT22;66763;47.856;17.462;2024-03-29T09:13:06;12.80;55.20
33943;DHT22;66763;47.856;17.462;2024-03-29T09:15:32;12.80;55.20
33943;DHT22;66763;47.856;17.462;2024-03-29T09:17:58;12.80;55.20
33943;DHT22;66763;47.856;17.462;2024-03-29T09:20:28;12.80;55.20
33943;DHT22;66763;47.856;17.462;2024-03-29T09:22:53;12.80;55.20
33943;DHT22;66763;47.856;17.462;2024-03-29T09:25:19;12.80;55.20
33943;DHT22;66763;47.856;17.462;2024-03-29T09:27:47;12.80;55.20
33943;DHT22;66763;47.856;17.462;2024-03-29T09:30:13;12.80;55.20
33943;DHT22;66763;47.856;17.462;2024-03-29T09:32:40;12.80;55.30
33943;DHT22;66763;47.856;17.462;2024-03-29T09:35:06;12.80;55.30
33943;DHT22;66763;47.856;17.462;2024-03-29T09:37:32;12.80;55.30
33943;DHT22;66763;47.856;17.462;2024-03-29T09:40:04;12.80;55.30
33943;DHT22;66763;47.856;17.462;2024-03-29T09:42:31;12.80;55.30
33943;DHT22;66763;47.856;17.462;2024-03-29T09:44:57;12.80;55.30
33943;DHT22;66763;47.856;17.462;2024-03-29T09:47:23;12.80;55.40
33943;DHT22;66763;47.856;17.462;2024-03-29T09:49:50;12.80;55.40
33943;DHT22;66763;47.856;17.462;2024-03-29T09:52:16;12.80;55.40
33943;DHT22;66763;47.856;17.462;2024-03-29T09:54:43;12.80;55.40
33943;DHT22;66763;47.856;17.462;2024-03-29T09:57:08;12.80;55.40
33943;DHT22;66763;47.856;17.462;2024-03-29T09:59:35;12.90;55.50
33943;DHT22;66763;47.856;17.462;2024-03-29T10:02:00;12.80;55.40
33943;DHT22;66763;47.856;17.462;2024-03-29T10:04:29;12.90;55.50
33943;DHT22;66763;47.856;17.462;2024-03-29T10:06:55;12.90;55.60
33943;DHT22;66763;47.856;17.462;2024-03-29T10:09:22;12.80;55.50
33943;DHT22;66763;47.856;17.462;2024-03-29T10:11:47;12.80;55.50
33943;DHT22;66763;47.856;17.462;2024-03-29T10:14:13;12.90;55.60
33943;DHT22;66763;47.856;17.462;2024-03-29T10:16:38;12.80;55.50
33943;DHT22;66763;47.856;17.462;2024-03-29T10:19:04;12.80;55.60
33943;DHT22;66763;47.856;17.462;2024-03-29T10:21:32;12.90;55.60
33943;DHT22;66763;47.856;17.462;2024-03-29T10:23:57;12.80;55.60
33943;DHT22;66763;47.856;17.462;2024-03-29T10:26:23;12.80;55.60
33943;DHT22;66763;47.856;17.462;2024-03-29T10:28:48;12.80;56.30
33943;DHT22;66763;47.856;17.462;2024-03-29T10:31:17;12.90;55.70
33943;DHT22;66763;47.856;17.462;2024-03-29T10:33:43;12.90;55.80
33943;DHT22;66763;47.856;17.462;2024-03-29T10:36:13;12.90;55.80
33943;DHT22;66763;47.856;17.462;2024-03-29T10:38:40;12.80;55.80
33943;DHT22;66763;47.856;17.462;2024-03-29T10:41:05;12.90;55.80
33943;DHT22;66763;47.856;17.462;2024-03-29T10:43:32;12.90;55.90
33943;DHT22;66763;47.856;17.462;2024-03-29T10:46:02;12.90;55.90
33943;DHT22;66763;47.856;17.462;2024-03-29T10:48:29;12.90;55.90
33943;DHT22;66763;47.856;17.462;2024-03-29T10:50:57;12.90;55.90
33943;DHT22;66763;47.856;17.462;2024-03-29T10:53:23;12.90;55.90
33943;DHT22;66763;47.856;17.462;2024-03-29T10:55:53;12.90;55.90
33943;DHT22;66763;47.856;17.462;2024-03-29T10:58:19;12.90;56.00
33943;DHT22;66763;47.856;17.462;2024-03-29T11:00:50;12.90;56.00
33943;DHT22;66763;47.856;17.462;2024-03-29T11:03:38;12.90;56.00
33943;DHT22;66763;47.856;17.462;2024-03-29T11:06:05;12.90;56.00
33943;DHT22;66763;47.856;17.462;2024-03-29T11:08:34;12.90;56.20
33943;DHT22;66763;47.856;17.462;2024-03-29T11:11:03;13.00;56.50
33943;DHT22;66763;47.856;17.462;2024-03-29T11:13:33;13.10;56.90
33943;DHT22;66763;47.856;17.462;2024-03-29T11:15:59;13.30;56.40
33943;DHT22;66763;47.856;17.462;2024-03-29T11:18:25;13.50;56.20
33943;DHT22;66763;47.856;17.462;2024-03-29T11:20:52;13.60;55.70
33943;DHT22;66763;47.856;17.462;2024-03-29T11:23:18;13.80;55.60
33943;DHT22;66763;47.856;17.462;2024-03-29T11:25:45;13.90;55.30
33943;DHT22;66763;47.856;17.462;2024-03-29T11:28:11;14.00;55.80
33943;DHT22;66763;47.856;17.462;2024-03-29T11:30:42;14.10;55.20
33943;DHT22;66763;47.856;17.462;2024-03-29T11:33:08;14.20;55.00
33943;DHT22;66763;47.856;17.462;2024-03-29T11:35:48;14.30;55.00
33943;DHT22;66763;47.856;17.462;2024-03-29T11:38:16;14.30;55.00
33943;DHT22;66763;47.856;17.462;2024-03-29T11:40:42;14.40;55.30
33943;DHT22;66763;47.856;17.462;2024-03-29T11:43:18;14.50;55.40
33943;DHT22;66763;47.856;17.462;2024-03-29T11:45:43;14.50;55.20
33943;DHT22;66763;47.856;17.462;2024-03-29T11:48:09;14.60;55.10
33943;DHT22;66763;47.856;17.462;2024-03-29T11:50:38;14.60;55.10
33943;DHT22;66763;47.856;17.462;2024-03-29T11:53:05;14.70;55.00
33943;DHT22;66763;47.856;17.462;2024-03-29T11:55:30;14.70;54.90
33943;DHT22;66763;47.856;17.462;2024-03-29T11:57:56;14.70;55.40
33943;DHT22;66763;47.856;17.462;2024-03-29T12:00:21;14.80;55.10
33943;DHT22;66763;47.856;17.462;2024-03-29T12:02:51;14.90;55.10
33943;DHT22;66763;47.856;17.462;2024-03-29T12:05:17;14.90;55.20
33943;DHT22;66763;47.856;17.462;2024-03-29T12:07:42;15.00;55.10
33943;DHT22;66763;47.856;17.462;2024-03-29T12:10:11;15.00;54.90
33943;DHT22;66763;47.856;17.462;2024-03-29T12:12:37;15.10;55.10
33943;DHT22;66763;47.856;17.462;2024-03-29T12:15:03;15.30;55.10
33943;DHT22;66763;47.856;17.462;2024-03-29T12:17:30;15.30;54.90
33943;DHT22;66763;47.856;17.462;2024-03-29T12:19:59;15.40;55.00
33943;DHT22;66763;47.856;17.462;2024-03-29T12:22:30;15.40;54.90
33943;DHT22;66763;47.856;17.462;2024-03-29T12:24:56;15.50;54.60
33943;DHT22;66763;47.856;17.462;2024-03-29T12:27:22;15.60;54.40
33943;DHT22;66763;47.856;17.462;2024-03-29T12:29:50;15.70;54.70
33943;DHT22;66763;47.856;17.462;2024-03-29T12:32:18;16.00;55.70
33943;DHT22;66763;47.856;17.462;2024-03-29T12:34:44;15.90;56.40
33943;DHT22;66763;47.856;17.462;2024-03-29T12:37:09;15.80;56.40
33943;DHT22;66763;47.856;17.462;2024-03-29T12:39:36;15.80;56.20
33943;DHT22;66763;47.856;17.462;2024-03-29T12:42:04;15.80;56.30
33943;DHT22;66763;47.856;17.462;2024-03-29T12:44:30;15.80;56.20
33943;DHT22;66763;47.856;17.462;2024-03-29T12:46:58;15.80;56.10
33943;DHT22;66763;47.856;17.462;2024-03-29T12:49:26;15.80;56.10
33943;DHT22;66763;47.856;17.462;2024-03-29T12:51:52;15.90;55.90
33943;DHT22;66763;47.856;17.462;2024-03-29T12:54:17;15.90;55.80
33943;DHT22;66763;47.856;17.462;2024-03-29T12:56:44;16.00;55.20
33943;DHT22;66763;47.856;17.462;2024-03-29T12:59:09;15.90;55.70
33943;DHT22;66763;47.856;17.462;2024-03-29T13:01:35;16.00;55.70
33943;DHT22;66763;47.856;17.462;2024-03-29T13:04:01;16.00;55.50
33943;DHT22;66763;47.856;17.462;2024-03-29T13:06:26;16.10;55.50
33943;DHT22;66763;47.856;17.462;2024-03-29T13:08:52;16.10;55.40
33943;DHT22;66763;47.856;17.462;2024-03-29T13:11:19;16.20;55.40
33943;DHT22;66763;47.856;17.462;2024-03-29T13:13:44;16.20;55.20
33943;DHT22;66763;47.856;17.462;2024-03-29T13:16:10;16.20;55.80
33943;DHT22;66763;47.856;17.462;2024-03-29T13:18:36;16.20;55.20
33943;DHT22;66763;47.856;17.462;2024-03-29T13:21:01;16.30;55.20
33943;DHT22;66763;47.856;17.462;2024-03-29T13:23:28;16.40;55.20
33943;DHT22;66763;47.856;17.462;2024-03-29T13:25:54;16.40;54.90
33943;DHT22;66763;47.856;17.462;2024-03-29T13:28:21;16.40;54.80
33943;DHT22;66763;47.856;17.462;2024-03-29T13:30:47;16.50;54.80
33943;DHT22;66763;47.856;17.462;2024-03-29T13:33:14;16.60;54.80
33943;DHT22;66763;47.856;17.462;2024-03-29T13:35:41;16.60;54.70
33943;DHT22;66763;47.856;17.462;2024-03-29T13:38:07;16.60;54.70
33943;DHT22;66763;47.856;17.462;2024-03-29T13:40:32;16.60;54.70
33943;DHT22;66763;47.856;17.462;2024-03-29T13:42:59;16.60;54.60
33943;DHT22;66763;47.856;17.462;2024-03-29T13:45:25;16.70;54.60
33943;DHT22;66763;47.856;17.462;2024-03-29T13:47:54;16.70;54.60
33943;DHT22;66763;47.856;17.462;2024-03-29T13:50:19;16.70;54.60
33943;DHT22;66763;47.856;17.462;2024-03-29T13:52:46;16.80;54.50
33943;DHT22;66763;47.856;17.462;2024-03-29T13:55:11;16.70;54.60
33943;DHT22;66763;47.856;17.462;2024-03-29T13:57:37;16.80;54.70
33943;DHT22;66763;47.856;17.462;2024-03-29T14:00:03;16.80;54.60
33943;DHT22;66763;47.856;17.462;2024-03-29T14:02:31;16.90;54.90
33943;DHT22;66763;47.856;17.462;2024-03-29T14:04:56;16.90;54.80
33943;DHT22;66763;47.856;17.462;2024-03-29T14:07:23;16.90;54.60
33943;DHT22;66763;47.856;17.462;2024-03-29T14:09:51;17.00;54.50
33943;DHT22;66763;47.856;17.462;2024-03-29T14:12:17;17.00;54.40
33943;DHT22;66763;47.856;17.462;2024-03-29T14:14:43;17.00;54.30
33943;DHT22;66763;47.856;17.462;2024-03-29T14:17:09;17.00;54.30
33943;DHT22;66763;47.856;17.462;2024-03-29T14:19:35;17.00;54.30
33943;DHT22;66763;47.856;17.462;2024-03-29T14:22:01;17.10;54.30
33943;DHT22;66763;47.856;17.462;2024-03-29T14:24:27;17.10;54.20
33943;DHT22;66763;47.856;17.462;2024-03-29T14:26:56;17.10;54.20
33943;DHT22;66763;47.856;17.462;2024-03-29T14:29:21;17.00;54.20
33943;DHT22;66763;47.856;17.462;2024-03-29T14:31:50;17.10;54.10
33943;DHT22;66763;47.856;17.462;2024-03-29T14:34:16;17.10;54.20
33943;DHT22;66763;47.856;17.462;2024-03-29T14:36:41;17.20;54.20
33943;DHT22;66763;47.856;17.462;2024-03-29T14:39:07;17.20;54.10
33943;DHT22;66763;47.856;17.462;2024-03-29T14:41:32;17.20;54.10
33943;DHT22;66763;47.856;17.462;2024-03-29T14:44:02;17.20;54.10
33943;DHT22;66763;47.856;17.462;2024-03-29T14:46:27;17.20;54.00
33943;DHT22;66763;47.856;17.462;2024-03-29T14:48:53;17.20;54.00
33943;DHT22;66763;47.856;17.462;2024-03-29T14:51:19;17.20;54.30
33943;DHT22;66763;47.856;17.462;2024-03-29T14:53:45;17.10;54.70
33943;DHT22;66763;47.856;17.462;2024-03-29T14:56:15;17.00;55.40
33943;DHT22;66763;47.856;17.462;2024-03-29T14:58:41;16.90;55.50
33943;DHT22;66763;47.856;17.462;2024-03-29T15:01:06;16.90;55.80
33943;DHT22;66763;47.856;17.462;2024-03-29T15:03:32;16.90;56.00
33943;DHT22;66763;47.856;17.462;2024-03-29T15:05:57;16.90;56.00
33943;DHT22;66763;47.856;17.462;2024-03-29T15:08:23;17.00;56.10
33943;DHT22;66763;47.856;17.462;2024-03-29T15:10:58;17.00;56.00